Terminal Aerodrome Forecast
Issued by NWS Shreveport, LA

Home | Current Version | Previous Version | Text Only | Print | Product List | Glossary On
Versions: 1 2 3 4 5 6 7 8 9 10 11 12 13 14 15 16 17 18 19 20 21 22 23 24 25
000
FTUS44 KSHV 031300 AAA
TAFTYR
TAF AMD
KTYR 031302Z 0313/0412 10004KT 2SM BR OVC002
      TEMPO 0313/0315 1/2SM FG
     FM031500 15006KT P6SM OVC010
     FM031700 18010KT P6SM BKN015
      TEMPO 0322/0402 SCT020
     FM040200 16006KT P6SM VCTS BKN025CB=

USA.gov is the U.S. government's official web portal to all federal, state and local government web resources and services.